createdAt,value
2018-12-05T00:00:15.289Z,5.5
2018-12-05T00:01:15.393Z,5.51
2018-12-05T00:02:15.556Z,5.51
2018-12-05T00:03:15.434Z,5.53
2018-12-05T00:04:15.208Z,5.53
2018-12-05T00:05:15.300Z,5.57
2018-12-05T00:06:15.971Z,5.54
2018-12-05T00:07:15.468Z,5.56
2018-12-05T00:08:15.385Z,5.54
2018-12-05T00:09:15.477Z,5.54
2018-12-05T00:10:15.194Z,5.57
2018-12-05T00:11:15.637Z,5.6
2018-12-05T00:12:15.143Z,5.57
2018-12-05T00:13:15.162Z,5.57
2018-12-05T00:14:15.289Z,5.62
2018-12-05T00:15:15.319Z,5.59
2018-12-05T00:16:15.183Z,5.59
2018-12-05T00:17:15.225Z,5.62
2018-12-05T00:18:15.183Z,5.59
2018-12-05T00:19:15.289Z,5.59
2018-12-05T00:20:15.146Z,5.56
2018-12-05T00:21:15.290Z,5.56
2018-12-05T00:22:15.303Z,5.56
2018-12-05T00:23:15.468Z,5.54
2018-12-05T00:24:15.149Z,5.6
2018-12-05T00:25:15.453Z,5.59
2018-12-05T00:26:15.497Z,5.54
2018-12-05T00:27:15.201Z,5.54
2018-12-05T00:28:15.235Z,5.5
2018-12-05T00:29:15.139Z,5.51
2018-12-05T00:30:15.206Z,5.49
2018-12-05T00:31:15.188Z,5.49
2018-12-05T00:32:15.243Z,5.5
2018-12-05T00:33:15.189Z,5.46
2018-12-05T00:34:15.144Z,5.49
2018-12-05T00:35:15.135Z,5.5
2018-12-05T00:36:15.114Z,5.51
2018-12-05T00:37:15.283Z,5.45
2018-12-05T00:38:15.162Z,5.43
2018-12-05T00:39:15.110Z,5.43
2018-12-05T00:40:15.393Z,5.42
2018-12-05T00:41:15.161Z,5.38
2018-12-05T00:42:15.329Z,5.35
2018-12-05T00:43:15.208Z,5.32
2018-12-05T00:44:15.215Z,5.33
2018-12-05T00:45:15.122Z,5.36
2018-12-05T00:46:15.114Z,5.35
2018-12-05T00:47:15.097Z,5.36
2018-12-05T00:48:15.127Z,5.33
2018-12-05T00:49:15.266Z,5.32
2018-12-05T00:50:15.213Z,5.3
2018-12-05T00:51:15.228Z,5.35
2018-12-05T00:52:15.163Z,5.36
2018-12-05T00:53:15.161Z,5.35
2018-12-05T00:54:15.249Z,5.29
2018-12-05T00:55:15.177Z,5.29
2018-12-05T00:56:15.310Z,5.25
2018-12-05T00:57:15.498Z,5.28
2018-12-05T00:58:15.169Z,5.3
2018-12-05T00:59:15.491Z,5.35
2018-12-05T01:00:15.116Z,5.36
2018-12-05T01:01:15.190Z,5.39
2018-12-05T01:02:15.061Z,5.36
2018-12-05T01:03:15.099Z,5.38
2018-12-05T01:04:15.158Z,5.38
2018-12-05T01:05:15.393Z,5.39
2018-12-05T01:06:15.253Z,5.38
2018-12-05T01:07:15.261Z,5.38
2018-12-05T01:08:15.209Z,5.4
2018-12-05T01:09:15.114Z,5.39
2018-12-05T01:10:15.140Z,5.4
2018-12-05T01:11:15.095Z,5.46
2018-12-05T01:12:15.154Z,5.43
2018-12-05T01:13:15.327Z,5.46
2018-12-05T01:14:15.227Z,5.46
2018-12-05T01:15:15.069Z,5.47
2018-12-05T01:16:15.167Z,5.46
2018-12-05T01:17:15.110Z,5.47
2018-12-05T01:18:15.120Z,5.47
2018-12-05T01:19:15.077Z,5.49
2018-12-05T01:20:15.247Z,5.49
2018-12-05T01:21:15.135Z,5.5
2018-12-05T01:22:15.210Z,5.5
2018-12-05T01:23:15.418Z,5.49
2018-12-05T01:24:15.109Z,5.49
2018-12-05T01:25:15.139Z,5.49
2018-12-05T01:26:15.621Z,5.49
2018-12-05T01:27:15.121Z,5.49
2018-12-05T01:28:15.112Z,5.49
2018-12-05T01:29:15.063Z,5.49
2018-12-05T01:30:15.367Z,5.45
2018-12-05T01:31:15.109Z,5.45
2018-12-05T01:32:15.099Z,5.45
2018-12-05T01:33:16.554Z,5.46
2018-12-05T01:34:15.120Z,5.47
2018-12-05T01:35:15.249Z,5.49
2018-12-05T01:36:15.079Z,5.5
2018-12-05T01:37:15.218Z,5.47
2018-12-05T01:38:15.657Z,5.45
2018-12-05T01:39:15.085Z,5.39
2018-12-05T01:40:15.314Z,5.38
2018-12-05T01:41:15.284Z,5.33
2018-12-05T01:42:15.294Z,5.28
2018-12-05T01:43:15.064Z,5.26
2018-12-05T01:44:15.060Z,5.26
2018-12-05T01:45:15.186Z,5.21
2018-12-05T01:46:15.071Z,5.21
2018-12-05T01:47:15.051Z,5.21
2018-12-05T01:48:15.105Z,5.12
2018-12-05T01:49:15.044Z,5.12
2018-12-05T01:50:15.322Z,5.11
2018-12-05T01:51:15.061Z,5.14
2018-12-05T01:52:15.293Z,5.11
2018-12-05T01:53:15.173Z,5.12
2018-12-05T01:54:15.052Z,5.12
2018-12-05T01:55:15.136Z,5.12
2018-12-05T01:56:15.065Z,5.14
2018-12-05T01:57:15.073Z,5.12
2018-12-05T01:58:15.048Z,5.1
2018-12-05T01:59:15.046Z,5.07
2018-12-05T02:00:15.147Z,5.1
2018-12-05T02:01:15.069Z,5.1
2018-12-05T02:02:15.066Z,5.15
2018-12-05T02:03:15.310Z,5.16
2018-12-05T02:04:15.027Z,5.18
2018-12-05T02:05:15.086Z,5.19
2018-12-05T02:06:15.388Z,5.18
2018-12-05T02:07:15.610Z,5.18
2018-12-05T02:08:15.024Z,5.19
2018-12-05T02:09:15.068Z,5.18
2018-12-05T02:10:15.034Z,5.21
2018-12-05T02:11:15.090Z,5.21
2018-12-05T02:12:15.493Z,5.19
2018-12-05T02:13:15.140Z,5.16
2018-12-05T02:14:15.092Z,5.14
2018-12-05T02:15:15.076Z,5.18
2018-12-05T02:16:15.262Z,5.15
2018-12-05T02:17:14.993Z,5.15
2018-12-05T02:18:15.029Z,5.14
2018-12-05T02:19:15.052Z,5.19
2018-12-05T02:20:15.124Z,5.18
2018-12-05T02:21:15.067Z,5.18
2018-12-05T02:22:15.101Z,5.21
2018-12-05T02:23:15.226Z,5.19
2018-12-05T02:24:15.289Z,5.19
2018-12-05T02:25:15.027Z,5.16
2018-12-05T02:26:15.393Z,5.18
2018-12-05T02:27:15.165Z,5.22
2018-12-05T02:28:15.453Z,5.22
2018-12-05T02:29:15.540Z,5.23
2018-12-05T02:30:15.291Z,5.25
2018-12-05T02:31:15.101Z,5.22
2018-12-05T02:32:15.158Z,5.28
2018-12-05T02:33:15.435Z,5.23
2018-12-05T02:34:15.018Z,5.26
2018-12-05T02:35:15.333Z,5.25
2018-12-05T02:36:15.130Z,5.25
2018-12-05T02:37:15.046Z,5.23
2018-12-05T02:38:15.044Z,5.22
2018-12-05T02:39:15.118Z,5.21
2018-12-05T02:40:14.987Z,5.19
2018-12-05T02:41:15.114Z,5.19
2018-12-05T02:42:15.192Z,5.21
2018-12-05T02:43:15.172Z,5.18
2018-12-05T02:44:15.095Z,5.16
2018-12-05T02:45:15.103Z,5.11
2018-12-05T02:46:15.072Z,5.12
2018-12-05T02:47:15.093Z,5.15
2018-12-05T02:48:15.062Z,5.15
2018-12-05T02:49:15.068Z,5.15
2018-12-05T02:50:15.359Z,5.15
2018-12-05T02:51:14.999Z,5.14
2018-12-05T02:52:15.066Z,5.11
2018-12-05T02:53:15.134Z,5.11
2018-12-05T02:54:14.972Z,5.11
2018-12-05T02:55:15.092Z,5.08
2018-12-05T02:56:15.174Z,5.1
2018-12-05T02:57:15.079Z,5.08
2018-12-05T02:58:15.042Z,5.07
2018-12-05T02:59:15.193Z,5.08
2018-12-05T03:00:15.094Z,5.1
2018-12-05T03:01:14.969Z,5.12
2018-12-05T03:02:15.016Z,5.14
2018-12-05T03:03:15.078Z,5.12
2018-12-05T03:04:15.276Z,5.18
2018-12-05T03:05:15.159Z,5.19
2018-12-05T03:06:15.191Z,5.18
2018-12-05T03:07:15.079Z,5.15
2018-12-05T03:08:15.028Z,5.12
2018-12-05T03:09:15.118Z,5.11
2018-12-05T03:10:15.095Z,5.15
2018-12-05T03:11:15.178Z,5.15
2018-12-05T03:12:15.068Z,5.21
2018-12-05T03:13:15.086Z,5.22
2018-12-05T03:14:15.200Z,5.19
2018-12-05T03:15:15.083Z,5.19
2018-12-05T03:16:15.165Z,5.21
2018-12-05T03:17:14.925Z,5.19
2018-12-05T03:18:15.048Z,5.21
2018-12-05T03:19:15.144Z,5.25
2018-12-05T03:20:15.731Z,5.25
2018-12-05T03:21:15.038Z,5.28
2018-12-05T03:22:15.189Z,5.28
2018-12-05T03:23:15.115Z,5.22
2018-12-05T03:24:15.101Z,5.16
2018-12-05T03:25:15.064Z,5.15
2018-12-05T03:26:15.038Z,5.14
2018-12-05T03:27:15.042Z,5.14
2018-12-05T03:28:15.010Z,5.11
2018-12-05T03:29:15.071Z,5.14
2018-12-05T03:30:15.075Z,5.11
2018-12-05T03:31:14.989Z,5.12
2018-12-05T03:32:14.935Z,5.1
2018-12-05T03:33:15.128Z,5.08
2018-12-05T03:34:14.982Z,5.08
2018-12-05T03:35:14.888Z,5.08
2018-12-05T03:36:14.978Z,5.01
2018-12-05T03:37:15.006Z,5.02
2018-12-05T03:38:15.142Z,4.98
2018-12-05T03:39:15.019Z,4.97
2018-12-05T03:40:14.868Z,4.94
2018-12-05T03:41:15.036Z,4.94
2018-12-05T03:42:14.999Z,4.94
2018-12-05T03:43:14.880Z,4.95
2018-12-05T03:44:14.937Z,4.97
2018-12-05T03:45:14.938Z,4.98
2018-12-05T03:46:15.004Z,5.02
2018-12-05T03:47:15.034Z,5.04
2018-12-05T03:48:14.966Z,5.04
2018-12-05T03:49:15.090Z,5.04
2018-12-05T03:50:14.976Z,5.05
2018-12-05T03:51:14.927Z,5.05
2018-12-05T03:52:15.073Z,5.07
2018-12-05T03:53:14.996Z,5.04
2018-12-05T03:54:14.855Z,5.08
2018-12-05T03:55:14.994Z,5.11
2018-12-05T03:56:14.913Z,5.1
2018-12-05T03:57:14.936Z,5.11
2018-12-05T03:58:15.008Z,5.1
2018-12-05T03:59:14.920Z,5.08
2018-12-05T04:00:15.071Z,5.1
2018-12-05T04:01:15.017Z,5.1
2018-12-05T04:02:15.126Z,5.11
2018-12-05T04:03:15.028Z,5.12
2018-12-05T04:04:14.968Z,5.08
2018-12-05T04:05:15.063Z,5.11
2018-12-05T04:06:15.033Z,5.16
2018-12-05T04:07:15.711Z,5.15
2018-12-05T04:08:15.034Z,5.16
2018-12-05T04:09:14.924Z,5.14
2018-12-05T04:10:15.704Z,5.16
2018-12-05T04:11:15.027Z,5.16
2018-12-05T04:12:15.010Z,5.18
2018-12-05T04:13:14.866Z,5.15
2018-12-05T04:14:14.997Z,5.16
2018-12-05T04:15:15.078Z,5.12
2018-12-05T04:16:14.815Z,5.15
2018-12-05T04:17:14.837Z,5.14
2018-12-05T04:18:15.018Z,5.1
2018-12-05T04:19:15.222Z,5.1
2018-12-05T04:20:15.022Z,5.11
2018-12-05T04:21:14.923Z,5.07
2018-12-05T04:22:15.199Z,5.1
2018-12-05T04:23:15.000Z,5.07
2018-12-05T04:24:15.064Z,5.11
2018-12-05T04:25:14.880Z,5.1
2018-12-05T04:26:14.853Z,5.07
2018-12-05T04:27:15.249Z,5.07
2018-12-05T04:28:15.093Z,5.11
2018-12-05T04:29:14.821Z,5.1
2018-12-05T04:30:15.087Z,5.07
2018-12-05T04:31:15.042Z,5.11
2018-12-05T04:32:16.077Z,5.07
2018-12-05T04:33:15.055Z,5.05
2018-12-05T04:34:15.057Z,5.07
2018-12-05T04:35:14.828Z,5.07
2018-12-05T04:36:15.030Z,5.07
2018-12-05T04:37:14.898Z,5.05
2018-12-05T04:38:15.362Z,5.02
2018-12-05T04:39:15.017Z,5.05
2018-12-05T04:40:15.190Z,5.08
2018-12-05T04:41:14.826Z,5.1
2018-12-05T04:42:14.827Z,5.08
2018-12-05T04:43:14.905Z,5.04
2018-12-05T04:44:14.826Z,5.05
2018-12-05T04:45:14.861Z,5.07
2018-12-05T04:46:15.045Z,5.07
2018-12-05T04:47:15.053Z,5.08
2018-12-05T04:48:14.901Z,5.1
2018-12-05T04:49:15.930Z,5.1
2018-12-05T04:50:15.040Z,5.07
2018-12-05T04:51:14.871Z,5.07
2018-12-05T04:52:15.246Z,5.11
2018-12-05T04:53:14.847Z,5.05
2018-12-05T04:54:14.980Z,5.08
2018-12-05T04:55:14.814Z,5.07
2018-12-05T04:56:14.826Z,5.1
2018-12-05T04:57:14.758Z,5.07
2018-12-05T04:58:15.058Z,5.07
2018-12-05T04:59:14.810Z,5.08
2018-12-05T05:00:14.861Z,5.1
2018-12-05T05:01:14.778Z,5.1
2018-12-05T05:02:14.818Z,5.11
2018-12-05T05:03:14.806Z,5.11
2018-12-05T05:04:15.049Z,5.12
2018-12-05T05:05:14.911Z,5.12
2018-12-05T05:06:14.775Z,5.1
2018-12-05T05:07:14.970Z,5.14
2018-12-05T05:08:15.042Z,5.12
2018-12-05T05:09:14.867Z,5.14
2018-12-05T05:10:14.879Z,5.12
2018-12-05T05:11:14.756Z,5.15
2018-12-05T05:12:15.116Z,5.14
2018-12-05T05:13:14.845Z,5.14
2018-12-05T05:14:14.776Z,5.12
2018-12-05T05:15:15.096Z,5.15
2018-12-05T05:16:14.748Z,5.16
2018-12-05T05:17:14.737Z,5.15
2018-12-05T05:18:14.779Z,5.19
2018-12-05T05:19:15.126Z,5.18
2018-12-05T05:20:14.831Z,5.19
2018-12-05T05:21:14.791Z,5.18
2018-12-05T05:22:14.764Z,5.18
2018-12-05T05:23:15.005Z,5.21
2018-12-05T05:24:14.809Z,5.22
2018-12-05T05:25:14.779Z,5.18
2018-12-05T05:26:14.785Z,5.19
2018-12-05T05:27:14.828Z,5.19
2018-12-05T05:28:14.748Z,5.19
2018-12-05T05:29:14.782Z,5.21
2018-12-05T05:30:14.744Z,5.21
2018-12-05T05:31:14.765Z,5.19
2018-12-05T05:32:14.934Z,5.21
2018-12-05T05:33:15.473Z,5.21
2018-12-05T05:34:15.028Z,5.18
2018-12-05T05:35:14.762Z,5.21
2018-12-05T05:36:17.634Z,5.21
2018-12-05T05:37:14.798Z,5.22
2018-12-05T05:38:14.753Z,5.23
2018-12-05T05:39:15.032Z,5.21
2018-12-05T05:40:14.814Z,5.22
2018-12-05T05:41:14.739Z,5.22
2018-12-05T05:42:15.568Z,5.22
2018-12-05T05:43:14.784Z,5.21
2018-12-05T05:44:14.785Z,5.22
2018-12-05T05:45:15.022Z,5.23
2018-12-05T05:46:14.835Z,5.22
2018-12-05T05:47:15.036Z,5.23
2018-12-05T05:48:15.088Z,5.23
2018-12-05T05:49:14.912Z,5.23
2018-12-05T05:50:14.728Z,5.26
2018-12-05T05:51:14.803Z,5.25
2018-12-05T05:52:14.722Z,5.28
2018-12-05T05:53:14.919Z,5.29
2018-12-05T05:54:14.754Z,5.35
2018-12-05T05:55:14.753Z,5.32
2018-12-05T05:56:14.848Z,5.33
2018-12-05T05:57:14.803Z,5.35
2018-12-05T05:58:17.612Z,5.35
2018-12-05T05:59:14.731Z,5.35
2018-12-05T06:00:14.715Z,5.36
2018-12-05T06:01:14.754Z,5.35
2018-12-05T06:02:15.103Z,5.35
2018-12-05T06:03:14.692Z,5.36
2018-12-05T06:04:14.758Z,5.36
2018-12-05T06:05:15.086Z,5.38
2018-12-05T06:06:15.116Z,5.42
2018-12-05T06:07:14.968Z,5.43
2018-12-05T06:08:15.130Z,5.42
2018-12-05T06:09:14.737Z,5.45
2018-12-05T06:10:14.991Z,5.46
2018-12-05T06:11:14.774Z,5.47
2018-12-05T06:12:14.848Z,5.5
2018-12-05T06:13:14.714Z,5.54
2018-12-05T06:14:15.121Z,5.54
2018-12-05T06:15:15.590Z,5.54
2018-12-05T06:16:14.975Z,5.6
2018-12-05T06:17:14.795Z,5.62
2018-12-05T06:18:14.744Z,5.57
2018-12-05T06:19:14.797Z,5.6
2018-12-05T06:20:14.703Z,5.63
2018-12-05T06:21:14.826Z,5.67
2018-12-05T06:22:14.783Z,5.66
2018-12-05T06:23:14.791Z,5.69
2018-12-05T06:24:14.988Z,5.69
2018-12-05T06:25:14.670Z,5.69
2018-12-05T06:26:14.841Z,5.67
2018-12-05T06:27:14.754Z,5.7
2018-12-05T06:28:15.029Z,5.74
2018-12-05T06:29:15.066Z,5.75
2018-12-05T06:30:14.686Z,5.75
2018-12-05T06:31:14.716Z,5.75
2018-12-05T06:32:14.715Z,5.74
2018-12-05T06:33:14.820Z,5.75
2018-12-05T06:34:14.710Z,5.77
2018-12-05T06:35:14.736Z,5.75
2018-12-05T06:36:14.738Z,5.8
2018-12-05T06:37:14.681Z,5.77
2018-12-05T06:38:15.032Z,5.77
2018-12-05T06:39:14.816Z,5.75
2018-12-05T06:40:14.794Z,5.8
2018-12-05T06:41:14.744Z,5.81
2018-12-05T06:42:14.732Z,5.8
2018-12-05T06:43:14.835Z,5.8
2018-12-05T06:44:14.720Z,5.84
2018-12-05T06:45:14.798Z,5.83
2018-12-05T06:46:14.729Z,5.81
2018-12-05T06:47:14.865Z,5.81
2018-12-05T06:48:14.635Z,5.83
2018-12-05T06:49:14.657Z,5.83
2018-12-05T06:50:14.878Z,5.83
2018-12-05T06:51:14.838Z,5.8
2018-12-05T06:52:14.814Z,5.81
2018-12-05T06:53:14.746Z,5.88
2018-12-05T06:54:14.703Z,5.85
2018-12-05T06:55:14.633Z,5.84
2018-12-05T06:56:14.642Z,5.84
2018-12-05T06:57:14.664Z,5.85
2018-12-05T06:58:14.650Z,5.87
2018-12-05T06:59:14.672Z,5.85
2018-12-05T07:00:14.630Z,5.9
2018-12-05T07:01:14.803Z,5.91
2018-12-05T07:02:14.613Z,5.95
2018-12-05T07:03:14.678Z,5.95
2018-12-05T07:04:14.615Z,5.92
2018-12-05T07:05:14.612Z,5.97
2018-12-05T07:06:14.599Z,5.98
2018-12-05T07:07:14.612Z,6
2018-12-05T07:08:14.632Z,6
2018-12-05T07:09:14.637Z,5.97
2018-12-05T07:10:14.749Z,5.97
2018-12-05T07:11:14.662Z,5.91
2018-12-05T07:12:14.829Z,5.88
2018-12-05T07:13:14.647Z,5.85
2018-12-05T07:14:14.694Z,5.88
2018-12-05T07:15:14.603Z,5.85
2018-12-05T07:16:14.758Z,5.88
2018-12-05T07:17:14.650Z,5.9
2018-12-05T07:18:14.606Z,5.87
2018-12-05T07:19:14.592Z,5.85
2018-12-05T07:20:14.600Z,5.81
2018-12-05T07:21:14.687Z,5.88
2018-12-05T07:22:14.684Z,5.87
2018-12-05T07:23:14.664Z,5.87
2018-12-05T07:24:14.690Z,5.87
2018-12-05T07:25:14.618Z,5.83
2018-12-05T07:26:14.762Z,5.78
2018-12-05T07:27:14.768Z,5.75
2018-12-05T07:28:14.780Z,5.73
2018-12-05T07:29:14.607Z,5.7
2018-12-05T07:30:14.610Z,5.71
2018-12-05T07:31:14.603Z,5.69
2018-12-05T07:32:14.661Z,5.69
2018-12-05T07:33:14.607Z,5.66
2018-12-05T07:34:14.639Z,5.67
2018-12-05T07:35:14.586Z,5.73
2018-12-05T07:36:14.765Z,5.71
2018-12-05T07:37:14.736Z,5.7
2018-12-05T07:38:19.878Z,5.67
2018-12-05T07:39:14.802Z,5.66
2018-12-05T07:40:15.017Z,5.66
2018-12-05T07:41:14.824Z,5.66
2018-12-05T07:42:14.744Z,5.7
2018-12-05T07:43:14.692Z,5.7
2018-12-05T07:44:14.568Z,5.7
2018-12-05T07:45:14.590Z,5.66
2018-12-05T07:46:14.569Z,5.67
2018-12-05T07:47:14.658Z,5.66
2018-12-05T07:48:14.801Z,5.71
2018-12-05T07:49:15.034Z,5.74
2018-12-05T07:50:16.066Z,5.75
2018-12-05T07:51:14.533Z,5.77
2018-12-05T07:52:14.586Z,5.75
2018-12-05T07:53:14.653Z,5.8
2018-12-05T07:54:14.644Z,5.77
2018-12-05T07:55:14.638Z,5.8
2018-12-05T07:56:14.767Z,5.78
2018-12-05T07:57:14.557Z,5.8
2018-12-05T07:58:14.722Z,5.75
2018-12-05T07:59:14.594Z,5.74
2018-12-05T08:00:14.537Z,5.73
2018-12-05T08:01:14.750Z,5.73
2018-12-05T08:02:14.653Z,5.74
2018-12-05T08:03:14.673Z,5.73
2018-12-05T08:04:14.591Z,5.73
2018-12-05T08:05:14.601Z,5.75
2018-12-05T08:06:14.874Z,5.73
2018-12-05T08:07:14.989Z,5.74
2018-12-05T08:08:14.613Z,5.74
2018-12-05T08:09:14.614Z,5.77
2018-12-05T08:10:14.758Z,5.74
2018-12-05T08:11:14.731Z,5.7
2018-12-05T08:12:14.725Z,5.7
2018-12-05T08:13:14.554Z,5.7
2018-12-05T08:14:14.592Z,5.67
2018-12-05T08:15:14.593Z,5.64
2018-12-05T08:16:14.611Z,5.67
2018-12-05T08:17:14.517Z,5.69
2018-12-05T08:18:14.758Z,5.67
2018-12-05T08:19:14.616Z,5.66
2018-12-05T08:20:14.761Z,5.71
2018-12-05T08:21:14.542Z,5.69
2018-12-05T08:22:14.763Z,5.69
2018-12-05T08:23:14.720Z,5.67
2018-12-05T08:24:14.548Z,5.67
2018-12-05T08:25:14.582Z,5.69
2018-12-05T08:26:14.710Z,5.74
2018-12-05T08:27:14.750Z,5.78
2018-12-05T08:28:14.594Z,5.75
2018-12-05T08:29:14.865Z,5.77
2018-12-05T08:30:14.529Z,5.74
2018-12-05T08:31:14.699Z,5.77
2018-12-05T08:32:14.690Z,5.8
2018-12-05T08:33:15.278Z,5.8
2018-12-05T08:34:14.638Z,5.81
2018-12-05T08:35:14.527Z,5.83
2018-12-05T08:36:14.522Z,5.83
2018-12-05T08:37:14.477Z,5.87
2018-12-05T08:38:14.543Z,5.88
2018-12-05T08:39:14.759Z,5.9
2018-12-05T08:40:14.500Z,5.88
2018-12-05T08:41:14.488Z,5.9
2018-12-05T08:42:14.550Z,5.91
2018-12-05T08:43:14.534Z,5.9
2018-12-05T08:44:14.456Z,5.92
2018-12-05T08:45:14.538Z,5.9
2018-12-05T08:46:14.503Z,5.95
2018-12-05T08:47:14.477Z,5.9
2018-12-05T08:48:14.522Z,5.91
2018-12-05T08:49:14.472Z,5.92
2018-12-05T08:50:14.465Z,5.95
2018-12-05T08:51:14.571Z,5.95
2018-12-05T08:52:14.457Z,6
2018-12-05T08:53:14.519Z,6.02
2018-12-05T08:54:21.518Z,6.02
2018-12-05T08:55:14.468Z,6.01
2018-12-05T08:56:14.509Z,6.01
2018-12-05T08:57:14.482Z,6.01
2018-12-05T08:58:14.455Z,6.02
2018-12-05T08:59:14.538Z,6.01
2018-12-05T09:00:14.568Z,6.04
2018-12-05T09:01:14.495Z,6.04
2018-12-05T09:02:15.000Z,6.06
2018-12-05T09:03:14.490Z,6.05
2018-12-05T09:04:14.460Z,6.05
2018-12-05T09:05:14.726Z,6.06
2018-12-05T09:06:14.687Z,6.09
2018-12-05T09:07:14.482Z,6.05
2018-12-05T09:08:14.693Z,6.04
2018-12-05T09:09:14.634Z,6.06
2018-12-05T09:10:15.286Z,6.05
2018-12-05T09:11:14.823Z,6.06
2018-12-05T09:12:14.588Z,6.06
2018-12-05T09:13:14.514Z,6.05
2018-12-05T09:14:14.524Z,6.06
2018-12-05T09:15:14.472Z,6.11
2018-12-05T09:16:14.585Z,6.09
2018-12-05T09:17:14.759Z,6.08
2018-12-05T09:18:14.511Z,6.06
2018-12-05T09:19:14.419Z,6.11
2018-12-05T09:20:14.476Z,6.11
2018-12-05T09:21:14.537Z,6.12
2018-12-05T09:22:14.595Z,6.12
2018-12-05T09:23:14.461Z,6.13
2018-12-05T09:24:14.435Z,6.12
2018-12-05T09:25:14.462Z,6.15
2018-12-05T09:26:14.620Z,6.18
2018-12-05T09:27:14.542Z,6.16
2018-12-05T09:28:14.463Z,6.19
2018-12-05T09:29:14.453Z,6.2
2018-12-05T09:30:15.112Z,6.13
2018-12-05T09:31:14.689Z,6.12
2018-12-05T09:32:14.494Z,6.15
2018-12-05T09:33:14.481Z,6.13
2018-12-05T09:34:14.406Z,6.19
2018-12-05T09:35:14.679Z,6.23
2018-12-05T09:36:14.467Z,6.25
2018-12-05T09:37:14.475Z,6.29
2018-12-05T09:38:14.595Z,6.29
2018-12-05T09:39:14.675Z,6.28
2018-12-05T09:40:14.445Z,6.29
2018-12-05T09:41:14.453Z,6.3
2018-12-05T09:42:14.460Z,6.3
2018-12-05T09:43:14.422Z,6.33
2018-12-05T09:44:14.390Z,6.36
2018-12-05T09:45:14.449Z,6.35
2018-12-05T09:46:15.239Z,6.37
2018-12-05T09:47:16.440Z,6.37
2018-12-05T09:48:14.611Z,6.41
2018-12-05T09:49:14.876Z,6.36
2018-12-05T09:50:14.489Z,6.39
2018-12-05T09:51:14.510Z,6.36
2018-12-05T09:52:14.429Z,6.29
2018-12-05T09:53:14.429Z,6.36
2018-12-05T09:54:14.471Z,6.35
2018-12-05T09:55:14.508Z,6.4
2018-12-05T09:56:14.581Z,6.4
2018-12-05T09:57:14.607Z,6.37
2018-12-05T09:58:14.583Z,6.41
2018-12-05T09:59:14.506Z,6.41
2018-12-05T10:00:14.471Z,6.46
2018-12-05T10:01:14.702Z,6.41
2018-12-05T10:02:14.549Z,6.43
2018-12-05T10:03:14.810Z,6.41
2018-12-05T10:04:14.688Z,6.43
2018-12-05T10:05:14.765Z,6.48
2018-12-05T10:06:14.496Z,6.48
2018-12-05T10:07:14.525Z,6.51
2018-12-05T10:08:14.710Z,6.51
2018-12-05T10:09:14.504Z,6.53
2018-12-05T10:10:14.529Z,6.56
2018-12-05T10:11:14.425Z,6.56
2018-12-05T10:12:14.364Z,6.58
2018-12-05T10:13:14.363Z,6.6
2018-12-05T10:14:14.513Z,6.57
2018-12-05T10:15:14.547Z,6.58
2018-12-05T10:16:14.887Z,6.6
2018-12-05T10:17:14.715Z,6.61
2018-12-05T10:18:14.462Z,6.6
2018-12-05T10:19:14.371Z,6.6
2018-12-05T10:20:14.620Z,6.6
2018-12-05T10:21:14.342Z,6.61
2018-12-05T10:22:14.380Z,6.6
2018-12-05T10:23:14.348Z,6.58
2018-12-05T10:24:14.359Z,6.6
2018-12-05T10:25:14.370Z,6.61
2018-12-05T10:26:14.526Z,6.63
2018-12-05T10:27:14.423Z,6.65
2018-12-05T10:28:14.811Z,6.64
2018-12-05T10:29:14.488Z,6.64
2018-12-05T10:30:14.431Z,6.67
2018-12-05T10:31:14.337Z,6.67
2018-12-05T10:32:14.414Z,6.64
2018-12-05T10:33:14.350Z,6.68
2018-12-05T10:34:14.340Z,6.67
2018-12-05T10:35:14.327Z,6.64
2018-12-05T10:36:14.597Z,6.67
2018-12-05T10:37:14.348Z,6.64
2018-12-05T10:38:14.358Z,6.65
2018-12-05T10:39:14.338Z,6.67
2018-12-05T10:40:14.734Z,6.7
2018-12-05T10:41:14.301Z,6.74
2018-12-05T10:42:14.371Z,6.77
2018-12-05T10:43:14.352Z,6.8
2018-12-05T10:44:14.455Z,6.81
2018-12-05T10:45:14.565Z,6.85
2018-12-05T10:46:15.171Z,6.88
2018-12-05T10:47:14.721Z,6.87
2018-12-05T10:48:14.534Z,6.9
2018-12-05T10:49:14.321Z,6.94
2018-12-05T10:50:14.418Z,6.95
2018-12-05T10:51:14.627Z,7.01
2018-12-05T10:52:14.409Z,7.03
2018-12-05T10:53:14.435Z,7.06
2018-12-05T10:54:14.374Z,7.09
2018-12-05T10:55:14.468Z,7.09
2018-12-05T10:56:14.522Z,7.13
2018-12-05T10:57:14.598Z,7.16
2018-12-05T10:58:14.336Z,7.22
2018-12-05T10:59:14.422Z,7.24
2018-12-05T11:00:14.468Z,7.27
2018-12-05T11:01:14.374Z,7.31
2018-12-05T11:02:15.056Z,7.31
2018-12-05T11:03:14.331Z,7.39
2018-12-05T11:04:14.463Z,7.4
2018-12-05T11:05:14.470Z,7.4
2018-12-05T11:06:14.560Z,7.39
2018-12-05T11:07:14.309Z,7.4
2018-12-05T11:08:14.352Z,7.41
2018-12-05T11:09:14.598Z,7.41
2018-12-05T11:10:14.397Z,7.4
2018-12-05T11:11:14.420Z,7.43
2018-12-05T11:12:14.389Z,7.4
2018-12-05T11:13:14.432Z,7.4
2018-12-05T11:14:14.494Z,7.41
2018-12-05T11:15:14.342Z,7.46
2018-12-05T11:16:14.495Z,7.48
2018-12-05T11:17:14.502Z,7.47
2018-12-05T11:18:14.324Z,7.47
2018-12-05T11:19:14.821Z,7.48
2018-12-05T11:20:14.501Z,7.48
2018-12-05T11:21:14.343Z,7.51
2018-12-05T11:22:14.438Z,7.51
2018-12-05T11:23:14.401Z,7.51
2018-12-05T11:24:14.610Z,7.48
2018-12-05T11:25:14.314Z,7.46
2018-12-05T11:26:14.371Z,7.5
2018-12-05T11:27:14.634Z,7.5
2018-12-05T11:28:15.149Z,7.53
2018-12-05T11:29:14.400Z,7.53
2018-12-05T11:30:14.554Z,7.55
2018-12-05T11:31:14.554Z,7.51
2018-12-05T11:32:14.593Z,7.53
2018-12-05T11:33:14.430Z,7.51
2018-12-05T11:34:14.439Z,7.48
2018-12-05T11:35:14.293Z,7.54
2018-12-05T11:36:14.354Z,7.54
2018-12-05T11:37:14.667Z,7.58
2018-12-05T11:38:14.290Z,7.55
2018-12-05T11:39:14.377Z,7.57
2018-12-05T11:40:15.081Z,7.54
2018-12-05T11:41:14.351Z,7.54
2018-12-05T11:42:14.462Z,7.57
2018-12-05T11:43:14.301Z,7.58
2018-12-05T11:44:14.411Z,7.57
2018-12-05T11:45:14.504Z,7.55
2018-12-05T11:46:14.658Z,7.57
2018-12-05T11:47:14.332Z,7.57
2018-12-05T11:48:14.364Z,7.57
2018-12-05T11:49:14.839Z,7.58
2018-12-05T11:50:14.313Z,7.57
2018-12-05T11:51:14.332Z,7.58
2018-12-05T11:52:14.452Z,7.59
2018-12-05T11:53:14.360Z,7.59
2018-12-05T11:54:14.237Z,7.59
2018-12-05T11:55:14.365Z,7.61
2018-12-05T11:56:14.288Z,7.58
2018-12-05T11:57:14.259Z,7.61
2018-12-05T11:58:14.302Z,7.64
2018-12-05T11:59:14.272Z,7.64
2018-12-05T12:00:14.244Z,7.62
2018-12-05T12:01:14.255Z,7.62
2018-12-05T12:02:14.296Z,7.64
2018-12-05T12:03:14.235Z,7.68
2018-12-05T12:04:14.366Z,7.72
2018-12-05T12:05:14.415Z,7.77
2018-12-05T12:06:14.427Z,7.85
2018-12-05T12:07:14.282Z,7.91
2018-12-05T12:08:14.849Z,7.96
2018-12-05T12:09:14.280Z,7.98
2018-12-05T12:10:14.760Z,8.02
2018-12-05T12:11:14.257Z,8.05
2018-12-05T12:12:14.310Z,8.06
2018-12-05T12:13:14.446Z,8.08
2018-12-05T12:14:14.315Z,8.05
2018-12-05T12:15:14.252Z,8.01
2018-12-05T12:16:14.292Z,8.03
2018-12-05T12:17:14.226Z,8.08
2018-12-05T12:18:14.376Z,8.08
2018-12-05T12:19:14.242Z,8.08
2018-12-05T12:20:14.357Z,8.08
2018-12-05T12:21:14.245Z,8.13
2018-12-05T12:22:14.268Z,8.17
2018-12-05T12:23:14.773Z,8.21
2018-12-05T12:24:14.336Z,8.24
2018-12-05T12:25:15.674Z,8.23
2018-12-05T12:26:15.488Z,8.24
2018-12-05T12:27:14.248Z,8.3
2018-12-05T12:28:14.548Z,8.37
2018-12-05T12:29:14.374Z,8.44
2018-12-05T12:30:16.366Z,8.51
2018-12-05T12:31:14.194Z,8.52
2018-12-05T12:32:14.298Z,8.57
2018-12-05T12:33:14.558Z,8.64
2018-12-05T12:34:14.352Z,8.64
2018-12-05T12:35:14.264Z,8.62
2018-12-05T12:36:14.259Z,8.64
2018-12-05T12:37:14.198Z,8.68
2018-12-05T12:38:14.261Z,8.62
2018-12-05T12:39:14.448Z,8.75
2018-12-05T12:40:14.560Z,8.71
2018-12-05T12:41:14.239Z,8.76
2018-12-05T12:42:14.226Z,8.78
2018-12-05T12:43:14.177Z,8.78
2018-12-05T12:44:14.303Z,8.83
2018-12-05T12:45:14.177Z,8.86
2018-12-05T12:46:14.264Z,8.89
2018-12-05T12:47:14.593Z,8.83
2018-12-05T12:48:14.254Z,8.91
2018-12-05T12:49:14.416Z,8.92
2018-12-05T12:50:14.552Z,8.92
2018-12-05T12:51:14.528Z,8.93
2018-12-05T12:52:14.198Z,8.89
2018-12-05T12:53:14.192Z,8.95
2018-12-05T12:54:14.327Z,8.96
2018-12-05T12:55:14.429Z,8.92
2018-12-05T12:56:14.244Z,8.88
2018-12-05T12:57:14.202Z,8.91
2018-12-05T12:58:15.029Z,8.93
2018-12-05T12:59:14.383Z,8.93
2018-12-05T13:00:14.372Z,8.98
2018-12-05T13:01:14.176Z,9.03
2018-12-05T13:02:14.179Z,8.99
2018-12-05T13:03:14.331Z,9.02
2018-12-05T13:04:14.197Z,9.04
2018-12-05T13:05:14.360Z,9.06
2018-12-05T13:06:14.549Z,9.09
2018-12-05T13:07:14.210Z,9.09
2018-12-05T13:08:14.219Z,9.09
2018-12-05T13:09:14.231Z,9.06
2018-12-05T13:10:14.401Z,9.03
2018-12-05T13:11:14.594Z,9.03
2018-12-05T13:12:14.217Z,9.02
2018-12-05T13:13:14.167Z,8.99
2018-12-05T13:14:14.344Z,8.98
2018-12-05T13:15:14.471Z,8.98
2018-12-05T13:16:14.462Z,9
2018-12-05T13:17:14.163Z,8.98
2018-12-05T13:18:14.185Z,8.98
2018-12-05T13:19:14.309Z,8.99
2018-12-05T13:20:14.113Z,8.99
2018-12-05T13:21:14.216Z,9
2018-12-05T13:22:14.229Z,9